createdAt,value
2018-10-05T00:00:16.111Z,11.50
2018-10-05T00:02:44.391Z,11.40
2018-10-05T00:05:14.373Z,11.30
2018-10-05T00:07:42.681Z,11.30
2018-10-05T00:10:10.848Z,11.30
2018-10-05T00:12:40.070Z,11.30
2018-10-05T00:15:09.311Z,11.40
2018-10-05T00:17:37.696Z,11.40
2018-10-05T00:20:06.004Z,11.50
2018-10-05T00:22:34.329Z,11.50
2018-10-05T00:25:03.027Z,11.50
2018-10-05T00:27:31.315Z,11.50
2018-10-05T00:29:59.565Z,11.50
2018-10-05T00:32:27.922Z,11.40
2018-10-05T00:34:56.166Z,11.40
2018-10-05T00:37:24.626Z,11.30
2018-10-05T00:39:52.916Z,11.20
2018-10-05T00:42:21.187Z,11.20
2018-10-05T00:44:50.015Z,11.20
2018-10-05T00:47:18.269Z,11.20
2018-10-05T00:49:47.211Z,11.20
2018-10-05T00:52:15.491Z,11.10
2018-10-05T00:54:44.496Z,11.10
2018-10-05T00:57:12.732Z,11.00
2018-10-05T00:59:41.027Z,11.00
2018-10-05T01:02:09.309Z,10.90
2018-10-05T01:04:37.613Z,10.80
2018-10-05T01:07:06.024Z,10.80
2018-10-05T01:09:34.270Z,10.70
2018-10-05T01:12:02.535Z,10.70
2018-10-05T01:14:30.747Z,10.60
2018-10-05T01:16:59.055Z,10.60
2018-10-05T01:19:27.292Z,10.60
2018-10-05T01:21:55.551Z,10.60
2018-10-05T01:24:23.886Z,10.70
2018-10-05T01:26:52.135Z,10.70
2018-10-05T01:29:20.371Z,10.70
2018-10-05T01:31:48.719Z,10.70
2018-10-05T01:34:17.698Z,10.70
2018-10-05T01:36:45.964Z,10.60
2018-10-05T01:39:14.183Z,10.60
2018-10-05T01:41:42.479Z,10.60
2018-10-05T01:44:10.702Z,10.50
2018-10-05T01:46:39.404Z,10.50
2018-10-05T01:49:07.840Z,10.50
2018-10-05T01:51:37.014Z,10.50
2018-10-05T01:54:05.923Z,10.50
2018-10-05T01:56:35.435Z,10.60
2018-10-05T01:59:04.015Z,10.60
2018-10-05T02:01:32.720Z,10.60
2018-10-05T02:04:01.180Z,10.60
2018-10-05T02:06:29.592Z,10.60
2018-10-05T02:08:57.823Z,10.60
2018-10-05T02:11:26.745Z,10.60
2018-10-05T02:13:55.875Z,10.60
2018-10-05T02:16:24.180Z,10.60
2018-10-05T02:18:53.459Z,10.60
2018-10-05T02:21:21.784Z,10.60
2018-10-05T02:23:50.019Z,10.60
2018-10-05T02:26:18.248Z,10.60
2018-10-05T02:28:46.479Z,10.50
2018-10-05T02:31:14.736Z,10.50
2018-10-05T02:33:43.038Z,10.50
2018-10-05T02:36:11.322Z,10.50
2018-10-05T02:38:39.587Z,10.50
2018-10-05T02:41:07.883Z,10.50
2018-10-05T02:43:36.102Z,10.50
2018-10-05T02:46:04.362Z,10.50
2018-10-05T02:48:32.620Z,10.60
2018-10-05T02:51:00.840Z,10.60
2018-10-05T02:53:29.072Z,10.60
2018-10-05T02:55:57.343Z,10.50
2018-10-05T02:58:26.332Z,10.50
2018-10-05T03:01:06.127Z,10.50
2018-10-05T03:03:34.439Z,10.50
2018-10-05T03:06:02.775Z,10.30
2018-10-05T03:08:31.030Z,10.30
2018-10-05T03:10:59.240Z,10.40
2018-10-05T03:13:27.464Z,10.30
2018-10-05T03:15:55.687Z,10.30
2018-10-05T03:18:24.059Z,10.30
2018-10-05T03:20:52.355Z,10.30
2018-10-05T03:23:20.588Z,10.20
2018-10-05T03:25:48.800Z,10.10
2018-10-05T03:28:17.952Z,10.10
2018-10-05T03:30:46.195Z,10.10
2018-10-05T03:33:14.451Z,10.10
2018-10-05T03:35:42.703Z,10.10
2018-10-05T03:38:10.942Z,10.00
2018-10-05T03:40:39.242Z,10.00
2018-10-05T03:43:07.772Z,9.90
2018-10-05T03:45:36.068Z,10.00
2018-10-05T03:48:04.296Z,9.90
2018-10-05T03:50:32.531Z,9.90
2018-10-05T03:53:00.823Z,9.90
2018-10-05T03:55:29.092Z,9.80
2018-10-05T03:57:57.383Z,9.70
2018-10-05T04:00:25.673Z,9.70
2018-10-05T04:02:53.915Z,9.70
2018-10-05T04:05:22.216Z,9.70
2018-10-05T04:07:50.481Z,9.70
2018-10-05T04:10:18.696Z,9.70
2018-10-05T04:12:46.947Z,9.50
2018-10-05T04:15:15.220Z,9.50
2018-10-05T04:17:43.856Z,9.60
2018-10-05T04:20:12.721Z,9.60
2018-10-05T04:22:40.967Z,9.60
2018-10-05T04:25:09.199Z,9.50
2018-10-05T04:27:37.843Z,9.50
2018-10-05T04:30:06.094Z,9.40
2018-10-05T04:32:34.345Z,9.40
2018-10-05T04:35:02.607Z,9.40
2018-10-05T04:37:30.914Z,9.40
2018-10-05T04:39:59.131Z,9.40
2018-10-05T04:42:27.420Z,9.40
2018-10-05T04:44:55.659Z,9.30
2018-10-05T04:47:23.926Z,9.30
2018-10-05T04:49:52.151Z,9.30
2018-10-05T04:52:20.376Z,9.30
2018-10-05T04:54:48.605Z,9.40
2018-10-05T04:57:16.914Z,9.40
2018-10-05T04:59:45.107Z,9.50
2018-10-05T05:02:13.274Z,9.50
2018-10-05T05:04:41.467Z,9.50
2018-10-05T05:07:09.855Z,9.50
2018-10-05T05:09:38.109Z,9.50
2018-10-05T05:12:06.421Z,9.60
2018-10-05T05:14:34.664Z,9.60
2018-10-05T05:17:02.876Z,9.70
2018-10-05T05:19:31.860Z,9.60
2018-10-05T05:22:00.120Z,9.60
2018-10-05T05:24:28.307Z,9.60
2018-10-05T05:26:56.571Z,9.60
2018-10-05T05:29:24.827Z,9.60
2018-10-05T05:31:53.120Z,9.60
2018-10-05T05:34:21.343Z,9.60
2018-10-05T05:36:49.770Z,9.50
2018-10-05T05:39:17.999Z,9.60
2018-10-05T05:41:46.208Z,9.60
2018-10-05T05:44:14.448Z,9.60
2018-10-05T05:46:42.631Z,9.70
2018-10-05T05:49:10.846Z,9.70
2018-10-05T05:51:39.055Z,9.80
2018-10-05T05:54:07.428Z,9.90
2018-10-05T05:56:35.583Z,9.80
2018-10-05T05:59:03.835Z,9.80
2018-10-05T06:01:32.130Z,10.10
2018-10-05T06:04:00.359Z,10.20
2018-10-05T06:06:28.659Z,10.30
2018-10-05T06:08:56.886Z,10.40
2018-10-05T06:11:25.266Z,10.50
2018-10-05T06:13:55.338Z,10.60
2018-10-05T06:16:23.689Z,10.70
2018-10-05T06:18:51.839Z,10.70
2018-10-05T06:21:20.142Z,10.80
2018-10-05T06:23:48.334Z,10.80
2018-10-05T06:26:16.656Z,10.90
2018-10-05T06:28:44.856Z,10.90
2018-10-05T06:31:13.179Z,10.90
2018-10-05T06:33:41.340Z,11.00
2018-10-05T06:36:10.230Z,11.00
2018-10-05T06:38:40.114Z,11.00
2018-10-05T06:41:08.387Z,11.10
2018-10-05T06:43:36.691Z,11.10
2018-10-05T06:46:04.939Z,11.00
2018-10-05T06:48:33.194Z,11.00
2018-10-05T06:51:01.423Z,11.10
2018-10-05T06:53:29.720Z,11.10
2018-10-05T06:55:58.413Z,11.10
2018-10-05T06:58:26.647Z,11.10
2018-10-05T07:00:54.934Z,11.10
2018-10-05T07:03:23.214Z,11.20
2018-10-05T07:05:51.525Z,11.20
2018-10-05T07:08:19.779Z,11.20
2018-10-05T07:10:48.039Z,11.30
2018-10-05T07:13:16.275Z,11.30
2018-10-05T07:15:44.530Z,11.40
2018-10-05T07:18:12.740Z,11.40
2018-10-05T07:20:41.045Z,11.40
2018-10-05T07:23:09.242Z,11.60
2018-10-05T07:25:38.342Z,11.60
2018-10-05T07:28:06.711Z,11.60
2018-10-05T07:30:34.979Z,11.70
2018-10-05T07:33:03.248Z,11.70
2018-10-05T07:35:32.179Z,11.80
2018-10-05T07:38:00.360Z,11.90
2018-10-05T07:40:28.580Z,11.90
2018-10-05T07:42:56.908Z,12.00
2018-10-05T07:45:25.285Z,12.00
2018-10-05T07:47:53.540Z,12.10
2018-10-05T07:50:21.803Z,12.20
2018-10-05T07:52:56.515Z,12.30
2018-10-05T07:55:24.747Z,12.30
2018-10-05T07:57:53.073Z,12.40
2018-10-05T08:00:21.858Z,12.50
2018-10-05T08:02:50.095Z,12.50
2018-10-05T08:05:18.448Z,12.60
2018-10-05T08:07:46.655Z,12.70
2018-10-05T08:10:14.927Z,12.70
2018-10-05T08:12:43.232Z,12.80
2018-10-05T08:15:11.463Z,12.80
2018-10-05T08:20:07.904Z,12.90
2018-10-05T08:22:36.191Z,13.00
2018-10-05T08:25:04.628Z,13.00
2018-10-05T08:27:32.871Z,13.00
2018-10-05T08:30:01.214Z,13.20
2018-10-05T08:32:29.475Z,13.20
2018-10-05T08:34:57.777Z,13.30
2018-10-05T08:37:26.060Z,13.40
2018-10-05T08:39:54.452Z,13.50
2018-10-05T08:42:22.639Z,13.50
2018-10-05T08:44:50.867Z,13.60
2018-10-05T08:47:19.532Z,13.60
2018-10-05T08:49:47.847Z,13.60
2018-10-05T08:52:16.202Z,13.70
2018-10-05T08:54:44.377Z,13.80
2018-10-05T08:57:12.694Z,14.00
2018-10-05T08:59:40.987Z,14.00
2018-10-05T09:02:09.272Z,14.00
2018-10-05T09:04:37.556Z,14.10
2018-10-05T09:07:05.978Z,14.10
2018-10-05T09:09:34.272Z,14.20
2018-10-05T09:12:02.513Z,14.20
2018-10-05T09:14:30.778Z,14.20
2018-10-05T09:16:59.039Z,14.30
2018-10-05T09:19:27.344Z,14.30
2018-10-05T09:21:55.688Z,14.30
2018-10-05T09:24:23.921Z,14.30
2018-10-05T09:26:52.266Z,14.40
2018-10-05T09:29:20.492Z,14.50
2018-10-05T09:31:48.782Z,14.50
2018-10-05T09:34:17.048Z,14.60
2018-10-05T09:36:45.404Z,14.80
2018-10-05T09:39:13.685Z,14.90
2018-10-05T09:41:41.963Z,15.00
2018-10-05T09:44:10.239Z,15.00
2018-10-05T09:46:38.551Z,15.20
2018-10-05T09:49:07.819Z,15.20
2018-10-05T09:51:36.016Z,15.20
2018-10-05T09:54:04.391Z,15.20
2018-10-05T09:56:32.611Z,15.40
2018-10-05T09:59:00.823Z,15.30
2018-10-05T10:01:34.572Z,15.40
2018-10-05T10:04:02.824Z,15.50
2018-10-05T10:06:32.072Z,15.50
2018-10-05T10:09:00.331Z,15.80
2018-10-05T10:11:28.531Z,15.80
2018-10-05T10:13:56.797Z,15.90
2018-10-05T10:16:25.083Z,15.90
2018-10-05T10:18:53.316Z,16.00
2018-10-05T10:21:21.606Z,16.00
2018-10-05T10:23:49.798Z,16.10
2018-10-05T10:26:18.030Z,16.10
2018-10-05T10:28:46.331Z,16.30
2018-10-05T10:31:14.562Z,16.30
2018-10-05T10:33:42.882Z,16.30
2018-10-05T10:36:11.738Z,16.40
2018-10-05T10:38:40.462Z,16.50
2018-10-05T10:41:08.722Z,16.60
2018-10-05T10:43:37.035Z,16.70
2018-10-05T10:46:05.320Z,16.80
2018-10-05T10:48:33.586Z,16.90
2018-10-05T10:51:01.789Z,16.90
2018-10-05T10:53:30.177Z,17.00
2018-10-05T10:55:58.479Z,17.20
2018-10-05T10:58:26.691Z,17.20
2018-10-05T11:00:54.964Z,17.20
2018-10-05T11:03:23.336Z,17.30
2018-10-05T11:05:51.568Z,17.40
2018-10-05T11:08:19.831Z,17.50
2018-10-05T11:10:48.117Z,17.60
2018-10-05T11:13:16.357Z,17.60
2018-10-05T11:15:44.660Z,17.70
2018-10-05T11:18:13.064Z,17.70
2018-10-05T11:20:41.335Z,17.80
2018-10-05T11:23:09.576Z,17.90
2018-10-05T11:25:37.763Z,17.90
2018-10-05T11:28:06.015Z,18.00
2018-10-05T11:30:34.271Z,18.10
2018-10-05T11:33:02.563Z,18.20
2018-10-05T11:35:30.910Z,18.20
2018-10-05T11:37:59.460Z,18.30
2018-10-05T11:40:27.782Z,18.40
2018-10-05T11:42:56.022Z,18.40
2018-10-05T11:45:24.284Z,18.60
2018-10-05T11:47:52.548Z,18.60
2018-10-05T11:50:20.804Z,18.70
2018-10-05T11:52:49.143Z,18.80
2018-10-05T11:55:17.385Z,18.90
2018-10-05T11:57:45.647Z,19.00
2018-10-05T12:00:16.882Z,19.10
2018-10-05T12:02:45.219Z,19.10
2018-10-05T12:05:13.506Z,19.10
2018-10-05T12:07:41.751Z,19.20
2018-10-05T12:10:10.104Z,19.30
2018-10-05T12:12:38.471Z,19.40
2018-10-05T12:15:07.056Z,19.40
2018-10-05T12:17:35.312Z,19.50
2018-10-05T12:20:03.640Z,19.60
2018-10-05T12:22:31.822Z,19.60
2018-10-05T12:25:00.177Z,19.70
2018-10-05T12:27:28.643Z,19.70
2018-10-05T12:29:56.953Z,19.70
2018-10-05T12:32:25.303Z,19.80
2018-10-05T12:34:53.524Z,19.90
2018-10-05T12:37:21.891Z,20.00
2018-10-05T12:39:50.192Z,20.10
2018-10-05T12:42:18.404Z,20.20
2018-10-05T12:44:46.639Z,20.30
2018-10-05T12:47:15.000Z,20.30
2018-10-05T12:49:43.247Z,20.30
2018-10-05T12:52:11.556Z,20.40
2018-10-05T12:54:39.807Z,20.40
2018-10-05T12:57:08.080Z,20.60
2018-10-05T12:59:36.416Z,20.60
2018-10-05T13:02:04.694Z,20.70
2018-10-05T13:04:32.859Z,20.70
2018-10-05T13:07:01.116Z,20.70
2018-10-05T13:09:29.340Z,20.80
2018-10-05T13:11:57.748Z,20.80
2018-10-05T13:14:26.036Z,20.80
2018-10-05T13:16:54.336Z,21.00
2018-10-05T13:19:22.642Z,21.10
2018-10-05T13:21:50.928Z,21.00
2018-10-05T13:24:19.125Z,21.20
2018-10-05T13:26:47.367Z,21.30
2018-10-05T13:29:15.645Z,21.40
2018-10-05T13:31:43.935Z,21.50
2018-10-05T13:34:12.300Z,21.60
2018-10-05T13:36:40.429Z,21.80
2018-10-05T13:39:09.580Z,21.90
2018-10-05T13:41:37.931Z,22.00
2018-10-05T13:44:06.227Z,22.20
2018-10-05T13:46:34.830Z,22.40
2018-10-05T13:49:04.103Z,22.50
2018-10-05T13:51:32.525Z,22.70
2018-10-05T13:54:00.740Z,22.80
2018-10-05T13:56:29.199Z,23.10
2018-10-05T13:58:57.507Z,23.40
2018-10-05T14:01:25.888Z,23.50
2018-10-05T14:03:54.143Z,23.70
2018-10-05T14:06:22.328Z,24.00
2018-10-05T14:08:50.663Z,24.30
2018-10-05T14:11:18.936Z,24.60
2018-10-05T14:13:47.133Z,24.90
2018-10-05T14:16:15.361Z,25.50
2018-10-05T14:18:43.520Z,26.70
2018-10-05T14:21:11.739Z,29.60
2018-10-05T14:23:40.032Z,32.40
2018-10-05T14:26:08.295Z,34.20
2018-10-05T14:28:37.136Z,35.50
2018-10-05T14:31:05.415Z,37.10
2018-10-05T14:33:33.691Z,38.30
2018-10-05T14:36:02.020Z,38.90
2018-10-05T14:38:30.256Z,39.30
2018-10-05T14:40:58.553Z,39.90
2018-10-05T14:43:26.854Z,40.60
2018-10-05T14:45:55.213Z,41.00
2018-10-05T14:48:23.380Z,41.30
2018-10-05T14:50:51.604Z,42.10
2018-10-05T14:53:19.888Z,42.40
2018-10-05T14:55:49.143Z,42.50
2018-10-05T14:58:17.440Z,42.90
2018-10-05T15:00:45.712Z,42.70
2018-10-05T15:03:14.019Z,42.60
2018-10-05T15:05:42.745Z,43.00
2018-10-05T15:08:11.020Z,43.40
2018-10-05T15:10:39.267Z,43.10
2018-10-05T15:13:07.541Z,43.00
2018-10-05T15:15:35.771Z,42.90
2018-10-05T15:18:04.021Z,42.80
2018-10-05T15:20:32.264Z,42.50
2018-10-05T15:23:01.601Z,42.00
2018-10-05T15:25:29.896Z,42.00
2018-10-05T15:27:58.179Z,42.00
2018-10-05T15:30:26.552Z,41.50
2018-10-05T15:32:54.973Z,41.40
2018-10-05T15:35:23.206Z,40.50
2018-10-05T15:37:51.703Z,37.90
2018-10-05T15:40:19.882Z,34.90
2018-10-05T15:42:48.082Z,32.50
2018-10-05T15:45:16.328Z,30.80
2018-10-05T15:47:44.600Z,29.20
2018-10-05T15:50:12.875Z,28.00
2018-10-05T15:52:41.135Z,27.10
2018-10-05T15:55:09.330Z,26.30
2018-10-05T15:57:38.578Z,25.60
2018-10-05T16:00:07.097Z,25.20
2018-10-05T16:02:35.456Z,24.70
2018-10-05T16:05:03.686Z,24.30
2018-10-05T16:12:36.726Z,24.00
2018-10-05T16:15:06.365Z,23.70
2018-10-05T16:20:53.959Z,22.80
2018-10-05T16:26:57.011Z,22.20
2018-10-05T16:38:04.690Z,22.20
2018-10-05T16:47:02.345Z,21.50
2018-10-05T16:49:45.328Z,21.00
2018-10-05T16:52:13.567Z,21.00
2018-10-05T16:57:22.815Z,20.80
2018-10-05T17:03:20.524Z,20.50
2018-10-05T17:05:52.556Z,20.40
2018-10-05T17:08:20.840Z,20.20
2018-10-05T17:13:31.087Z,20.10
2018-10-05T17:16:01.359Z,20.00
2018-10-05T17:25:33.958Z,19.50
2018-10-05T17:31:08.808Z,19.30
2018-10-05T17:33:39.889Z,19.10
2018-10-05T17:36:08.127Z,18.90
2018-10-05T17:48:39.072Z,18.70
2018-10-05T18:00:51.106Z,18.00
2018-10-05T18:09:03.609Z,17.70
2018-10-05T18:11:56.068Z,17.70
2018-10-05T18:14:24.363Z,17.50
2018-10-05T18:16:57.482Z,17.40
2018-10-05T18:19:32.331Z,17.40
2018-10-05T18:37:40.128Z,17.20
2018-10-05T18:40:12.428Z,17.20
2018-10-05T18:42:40.662Z,16.90
2018-10-05T18:45:22.668Z,16.90
2018-10-05T18:47:50.932Z,16.80
2018-10-05T18:50:19.224Z,16.70
2018-10-05T18:52:47.463Z,16.70
2018-10-05T18:55:16.451Z,16.60
2018-10-05T18:57:45.716Z,16.50
2018-10-05T19:00:14.025Z,16.40
2018-10-05T19:02:42.313Z,16.40
2018-10-05T19:05:10.663Z,16.30
2018-10-05T19:07:38.935Z,16.20
2018-10-05T19:10:07.228Z,16.20
2018-10-05T19:12:35.469Z,16.20
2018-10-05T19:15:03.728Z,16.10
2018-10-05T19:17:32.009Z,16.10
2018-10-05T19:20:00.273Z,16.00
2018-10-05T19:22:28.608Z,16.00
2018-10-05T19:24:56.939Z,15.90
2018-10-05T19:27:25.176Z,15.90
2018-10-05T19:29:53.472Z,15.80
2018-10-05T19:32:21.773Z,15.80
2018-10-05T19:34:50.047Z,15.70
2018-10-05T19:37:18.263Z,15.70
2018-10-05T19:39:46.519Z,15.60
2018-10-05T19:42:14.778Z,15.60
2018-10-05T19:44:43.055Z,15.60
2018-10-05T19:47:11.284Z,15.50
2018-10-05T19:49:39.553Z,15.40
2018-10-05T19:52:07.767Z,15.40
2018-10-05T19:54:35.983Z,15.40
2018-10-05T19:57:04.233Z,15.40
2018-10-05T19:59:32.563Z,15.30
2018-10-05T20:02:00.886Z,15.30
2018-10-05T20:04:29.162Z,15.20
2018-10-05T20:06:57.467Z,15.20
2018-10-05T20:09:25.827Z,15.20
2018-10-05T20:11:54.219Z,15.10
2018-10-05T20:14:22.676Z,15.10
2018-10-05T20:16:51.215Z,14.90
2018-10-05T20:19:19.704Z,15.00
2018-10-05T20:21:47.967Z,15.00
2018-10-05T20:24:16.321Z,15.00
2018-10-05T20:26:44.593Z,14.90
2018-10-05T20:29:12.847Z,14.90
2018-10-05T20:31:41.796Z,14.90
2018-10-05T20:34:10.067Z,14.80
2018-10-05T20:36:38.560Z,14.80
2018-10-05T20:39:07.696Z,14.80
2018-10-05T20:41:36.548Z,14.70
2018-10-05T20:44:04.980Z,14.60
2018-10-05T20:46:33.491Z,14.60
2018-10-05T20:49:03.183Z,14.60
2018-10-05T20:51:32.569Z,14.60
2018-10-05T20:54:00.799Z,14.50
2018-10-05T20:56:29.354Z,14.50
2018-10-05T20:58:57.596Z,14.50
2018-10-05T21:01:25.815Z,14.50
2018-10-05T21:03:54.060Z,14.50
2018-10-05T21:06:22.343Z,14.50
2018-10-05T21:08:50.639Z,14.50
2018-10-05T21:11:18.804Z,14.40
2018-10-05T21:13:47.824Z,14.40
2018-10-05T21:16:16.056Z,14.40
2018-10-05T21:18:44.383Z,14.30
2018-10-05T21:21:12.691Z,14.30
2018-10-05T21:23:40.967Z,14.30
2018-10-05T21:26:09.239Z,14.30
2018-10-05T21:28:37.479Z,14.30
2018-10-05T21:31:05.844Z,14.20
2018-10-05T21:33:34.148Z,14.10
2018-10-05T21:36:02.424Z,14.10
2018-10-05T21:38:30.754Z,14.10
2018-10-05T21:40:59.088Z,14.10
2018-10-05T21:43:27.304Z,14.10
2018-10-05T21:45:55.692Z,14.10
2018-10-05T21:48:24.135Z,14.10
2018-10-05T21:50:53.053Z,14.00
2018-10-05T21:53:21.341Z,13.90
2018-10-05T21:55:49.660Z,13.80
2018-10-05T21:58:17.873Z,13.80
2018-10-05T22:00:46.131Z,13.90
2018-10-05T22:03:14.464Z,13.80
2018-10-05T22:05:42.853Z,13.80
2018-10-05T22:08:11.215Z,13.70
2018-10-05T22:10:39.523Z,13.80
2018-10-05T22:13:07.739Z,13.70
2018-10-05T22:15:36.007Z,13.70
2018-10-05T22:18:04.868Z,13.60
2018-10-05T22:20:33.142Z,13.60
2018-10-05T22:23:01.367Z,13.60
2018-10-05T22:25:29.650Z,13.70
2018-10-05T22:27:57.906Z,13.60
2018-10-05T22:30:26.188Z,13.50
2018-10-05T22:32:55.347Z,13.50
2018-10-05T22:35:23.750Z,13.40
2018-10-05T22:37:52.011Z,13.40
2018-10-05T22:40:20.278Z,13.50
2018-10-05T22:42:48.544Z,13.40
2018-10-05T22:45:16.844Z,13.30
2018-10-05T22:47:45.123Z,13.20
2018-10-05T22:50:13.387Z,13.20
2018-10-05T22:52:41.644Z,13.20
2018-10-05T22:55:09.884Z,13.20
2018-10-05T22:57:38.172Z,13.20
2018-10-05T23:00:06.707Z,13.20
2018-10-05T23:02:34.971Z,13.30
2018-10-05T23:07:31.483Z,13.40
2018-10-05T23:09:59.699Z,13.30
2018-10-05T23:14:56.068Z,13.20
2018-10-05T23:17:24.374Z,13.20
2018-10-05T23:22:21.384Z,13.10
2018-10-05T23:24:49.644Z,13.10
2018-10-05T23:27:18.450Z,13.00
2018-10-05T23:29:46.663Z,13.00
2018-10-05T23:32:14.923Z,12.90
2018-10-05T23:34:43.175Z,12.90
2018-10-05T23:37:11.530Z,12.90
2018-10-05T23:39:40.031Z,12.90
2018-10-05T23:42:08.306Z,13.00
2018-10-05T23:44:36.578Z,13.10
2018-10-05T23:47:05.023Z,13.10
2018-10-05T23:49:33.216Z,13.00
2018-10-05T23:52:09.917Z,12.90
2018-10-05T23:54:38.103Z,12.90
2018-10-05T23:57:06.315Z,13.00
2018-10-05T23:59:34.576Z,13.00
